sensor_id;sensor_type;location;lat;lon;timestamp;temperature;humidity
2202;DHT22;1107;48.654;9.250;2022-09-27T00:01:16;9.60;99.90
2202;DHT22;1107;48.654;9.250;2022-09-27T00:03:44;9.60;99.90
2202;DHT22;1107;48.654;9.250;2022-09-27T00:06:13;9.50;99.90
2202;DHT22;1107;48.654;9.250;2022-09-27T00:08:41;9.50;99.90
2202;DHT22;1107;48.654;9.250;2022-09-27T00:11:14;9.50;99.90
2202;DHT22;1107;48.654;9.250;2022-09-27T00:13:43;9.50;99.90
2202;DHT22;1107;48.654;9.250;2022-09-27T00:16:12;9.50;99.90
2202;DHT22;1107;48.654;9.250;2022-09-27T00:18:39;9.50;99.90
2202;DHT22;1107;48.654;9.250;2022-09-27T00:21:07;9.50;99.90
2202;DHT22;1107;48.654;9.250;2022-09-27T00:23:35;9.50;99.90
2202;DHT22;1107;48.654;9.250;2022-09-27T00:26:03;9.50;99.90
2202;DHT22;1107;48.654;9.250;2022-09-27T00:28:31;9.50;99.90
2202;DHT22;1107;48.654;9.250;2022-09-27T00:30:58;9.50;99.90
2202;DHT22;1107;48.654;9.250;2022-09-27T00:33:27;9.40;99.90
2202;DHT22;1107;48.654;9.250;2022-09-27T00:35:54;9.50;99.90
2202;DHT22;1107;48.654;9.250;2022-09-27T00:38:21;9.40;99.90
2202;DHT22;1107;48.654;9.250;2022-09-27T00:40:48;9.50;99.90
2202;DHT22;1107;48.654;9.250;2022-09-27T00:43:18;9.40;99.90
2202;DHT22;1107;48.654;9.250;2022-09-27T00:45:48;9.50;99.90
2202;DHT22;1107;48.654;9.250;2022-09-27T00:48:19;9.50;99.90
2202;DHT22;1107;48.654;9.250;2022-09-27T00:50:50;9.50;99.90
2202;DHT22;1107;48.654;9.250;2022-09-27T00:53:23;9.50;99.90
2202;DHT22;1107;48.654;9.250;2022-09-27T00:55:56;9.50;99.90
2202;DHT22;1107;48.654;9.250;2022-09-27T00:58:26;9.50;99.90
2202;DHT22;1107;48.654;9.250;2022-09-27T01:00:57;9.50;99.90
2202;DHT22;1107;48.654;9.250;2022-09-27T01:03:33;9.50;99.90
2202;DHT22;1107;48.654;9.250;2022-09-27T01:06:05;9.40;99.90
2202;DHT22;1107;48.654;9.250;2022-09-27T01:08:34;9.40;99.90
2202;DHT22;1107;48.654;9.250;2022-09-27T01:11:12;9.50;99.90
2202;DHT22;1107;48.654;9.250;2022-09-27T01:13:44;9.40;99.90
2202;DHT22;1107;48.654;9.250;2022-09-27T01:16:20;9.40;99.90
2202;DHT22;1107;48.654;9.250;2022-09-27T01:19:02;9.40;99.90
2202;DHT22;1107;48.654;9.250;2022-09-27T01:21:45;9.50;99.90
2202;DHT22;1107;48.654;9.250;2022-09-27T01:24:37;9.50;99.90
2202;DHT22;1107;48.654;9.250;2022-09-27T01:27:30;9.50;99.90
2202;DHT22;1107;48.654;9.250;2022-09-27T01:30:25;9.50;99.90
2202;DHT22;1107;48.654;9.250;2022-09-27T01:35:51;9.60;99.90
2202;DHT22;1107;48.654;9.250;2022-09-27T01:38:25;9.60;99.90
2202;DHT22;1107;48.654;9.250;2022-09-27T01:41:04;9.60;99.90
2202;DHT22;1107;48.654;9.250;2022-09-27T01:43:35;9.60;99.90
2202;DHT22;1107;48.654;9.250;2022-09-27T01:46:09;9.60;99.90
2202;DHT22;1107;48.654;9.250;2022-09-27T01:48:42;9.70;99.90
2202;DHT22;1107;48.654;9.250;2022-09-27T01:51:14;9.60;99.90
2202;DHT22;1107;48.654;9.250;2022-09-27T01:53:44;9.60;99.90
2202;DHT22;1107;48.654;9.250;2022-09-27T01:56:15;9.60;99.90
2202;DHT22;1107;48.654;9.250;2022-09-27T01:58:48;9.60;99.90
2202;DHT22;1107;48.654;9.250;2022-09-27T02:01:19;9.60;99.90
2202;DHT22;1107;48.654;9.250;2022-09-27T02:03:49;9.60;99.90
2202;DHT22;1107;48.654;9.250;2022-09-27T02:06:20;9.60;99.90
2202;DHT22;1107;48.654;9.250;2022-09-27T02:08:51;9.60;99.90
2202;DHT22;1107;48.654;9.250;2022-09-27T02:11:19;9.60;99.90
2202;DHT22;1107;48.654;9.250;2022-09-27T02:13:52;9.60;99.90
2202;DHT22;1107;48.654;9.250;2022-09-27T02:16:27;9.60;99.90
2202;DHT22;1107;48.654;9.250;2022-09-27T02:19:04;9.60;99.90
2202;DHT22;1107;48.654;9.250;2022-09-27T02:21:39;9.60;99.90
2202;DHT22;1107;48.654;9.250;2022-09-27T02:24:09;9.60;99.90
2202;DHT22;1107;48.654;9.250;2022-09-27T02:26:42;9.60;99.90
2202;DHT22;1107;48.654;9.250;2022-09-27T02:29:13;9.60;99.90
2202;DHT22;1107;48.654;9.250;2022-09-27T02:31:44;9.60;99.90
2202;DHT22;1107;48.654;9.250;2022-09-27T02:34:14;9.60;99.90
2202;DHT22;1107;48.654;9.250;2022-09-27T02:36:42;9.60;99.90
2202;DHT22;1107;48.654;9.250;2022-09-27T02:39:10;9.60;99.90
2202;DHT22;1107;48.654;9.250;2022-09-27T02:41:37;9.60;99.90
2202;DHT22;1107;48.654;9.250;2022-09-27T02:44:06;9.60;99.90
2202;DHT22;1107;48.654;9.250;2022-09-27T02:46:51;9.70;99.90
2202;DHT22;1107;48.654;9.250;2022-09-27T02:49:34;9.70;99.90
2202;DHT22;1107;48.654;9.250;2022-09-27T02:52:11;9.70;99.90
2202;DHT22;1107;48.654;9.250;2022-09-27T02:54:49;9.70;99.90
2202;DHT22;1107;48.654;9.250;2022-09-27T02:57:27;9.70;99.90
2202;DHT22;1107;48.654;9.250;2022-09-27T03:00:01;9.70;99.90
2202;DHT22;1107;48.654;9.250;2022-09-27T03:02:37;9.70;99.90
2202;DHT22;1107;48.654;9.250;2022-09-27T03:05:08;9.70;99.90
2202;DHT22;1107;48.654;9.250;2022-09-27T03:07:36;9.70;99.90
2202;DHT22;1107;48.654;9.250;2022-09-27T03:10:05;9.70;99.90
2202;DHT22;1107;48.654;9.250;2022-09-27T03:12:33;9.60;99.90
2202;DHT22;1107;48.654;9.250;2022-09-27T03:15:00;9.60;99.90
2202;DHT22;1107;48.654;9.250;2022-09-27T03:17:27;9.60;99.90
2202;DHT22;1107;48.654;9.250;2022-09-27T03:19:55;9.50;99.90
2202;DHT22;1107;48.654;9.250;2022-09-27T03:22:22;9.50;99.90
2202;DHT22;1107;48.654;9.250;2022-09-27T03:24:49;9.50;65.90
2202;DHT22;1107;48.654;9.250;2022-09-27T03:27:17;9.50;99.90
2202;DHT22;1107;48.654;9.250;2022-09-27T03:29:44;9.40;57.60
2202;DHT22;1107;48.654;9.250;2022-09-27T03:32:11;9.40;49.30
2202;DHT22;1107;48.654;9.250;2022-09-27T03:34:38;9.40;1.00
2202;DHT22;1107;48.654;9.250;2022-09-27T03:37:06;9.40;10.50
2202;DHT22;1107;48.654;9.250;2022-09-27T03:39:34;9.40;26.60
2202;DHT22;1107;48.654;9.250;2022-09-27T03:42:01;9.40;60.10
2202;DHT22;1107;48.654;9.250;2022-09-27T03:44:28;9.50;99.90
2202;DHT22;1107;48.654;9.250;2022-09-27T03:46:55;9.50;99.90
2202;DHT22;1107;48.654;9.250;2022-09-27T03:49:23;9.50;99.90
2202;DHT22;1107;48.654;9.250;2022-09-27T03:51:50;9.60;99.90
2202;DHT22;1107;48.654;9.250;2022-09-27T03:54:18;9.60;99.90
2202;DHT22;1107;48.654;9.250;2022-09-27T03:56:45;9.70;99.90
2202;DHT22;1107;48.654;9.250;2022-09-27T03:59:12;9.60;92.10
2202;DHT22;1107;48.654;9.250;2022-09-27T04:01:39;9.60;54.10
2202;DHT22;1107;48.654;9.250;2022-09-27T04:04:06;9.60;35.60
2202;DHT22;1107;48.654;9.250;2022-09-27T04:06:34;9.50;26.40
2202;DHT22;1107;48.654;9.250;2022-09-27T04:09:01;9.50;18.60
2202;DHT22;1107;48.654;9.250;2022-09-27T04:11:30;9.50;22.60
2202;DHT22;1107;48.654;9.250;2022-09-27T04:13:57;9.50;1.00
2202;DHT22;1107;48.654;9.250;2022-09-27T04:16:24;9.50;9.50
2202;DHT22;1107;48.654;9.250;2022-09-27T04:18:52;9.50;14.60
2202;DHT22;1107;48.654;9.250;2022-09-27T04:21:19;9.50;1.00
2202;DHT22;1107;48.654;9.250;2022-09-27T04:23:47;9.50;1.00
2202;DHT22;1107;48.654;9.250;2022-09-27T04:26:14;9.50;1.00
2202;DHT22;1107;48.654;9.250;2022-09-27T04:28:42;9.50;16.20
2202;DHT22;1107;48.654;9.250;2022-09-27T04:31:10;9.50;1.00
2202;DHT22;1107;48.654;9.250;2022-09-27T04:33:37;9.40;1.00
2202;DHT22;1107;48.654;9.250;2022-09-27T04:36:05;9.50;1.00
2202;DHT22;1107;48.654;9.250;2022-09-27T04:38:50;9.40;1.00
2202;DHT22;1107;48.654;9.250;2022-09-27T04:41:17;9.40;1.00
2202;DHT22;1107;48.654;9.250;2022-09-27T04:43:46;9.40;1.00
2202;DHT22;1107;48.654;9.250;2022-09-27T04:46:13;9.40;1.00
2202;DHT22;1107;48.654;9.250;2022-09-27T04:48:40;9.30;1.00
2202;DHT22;1107;48.654;9.250;2022-09-27T04:51:08;9.30;1.00
2202;DHT22;1107;48.654;9.250;2022-09-27T04:53:35;9.30;1.00
2202;DHT22;1107;48.654;9.250;2022-09-27T04:56:03;9.30;1.00
2202;DHT22;1107;48.654;9.250;2022-09-27T04:58:31;9.20;1.00
2202;DHT22;1107;48.654;9.250;2022-09-27T05:01:00;9.20;1.00
2202;DHT22;1107;48.654;9.250;2022-09-27T05:03:27;9.20;1.00
2202;DHT22;1107;48.654;9.250;2022-09-27T05:05:54;9.20;11.90
2202;DHT22;1107;48.654;9.250;2022-09-27T05:08:21;9.20;1.00
2202;DHT22;1107;48.654;9.250;2022-09-27T05:10:48;9.20;1.00
2202;DHT22;1107;48.654;9.250;2022-09-27T05:13:15;9.20;1.00
2202;DHT22;1107;48.654;9.250;2022-09-27T05:15:43;9.20;1.00
2202;DHT22;1107;48.654;9.250;2022-09-27T05:18:12;9.10;1.00
2202;DHT22;1107;48.654;9.250;2022-09-27T05:20:39;9.10;1.00
2202;DHT22;1107;48.654;9.250;2022-09-27T05:23:06;9.10;1.00
2202;DHT22;1107;48.654;9.250;2022-09-27T05:25:34;9.10;1.00
2202;DHT22;1107;48.654;9.250;2022-09-27T05:28:01;9.10;1.00
2202;DHT22;1107;48.654;9.250;2022-09-27T05:30:29;9.00;1.00
2202;DHT22;1107;48.654;9.250;2022-09-27T05:32:56;9.00;1.00
2202;DHT22;1107;48.654;9.250;2022-09-27T05:35:24;9.00;1.00
2202;DHT22;1107;48.654;9.250;2022-09-27T05:37:53;9.00;1.00
2202;DHT22;1107;48.654;9.250;2022-09-27T05:40:20;9.00;1.00
2202;DHT22;1107;48.654;9.250;2022-09-27T05:42:49;9.00;1.00
2202;DHT22;1107;48.654;9.250;2022-09-27T05:45:17;9.00;1.00
2202;DHT22;1107;48.654;9.250;2022-09-27T05:47:52;9.00;1.00
2202;DHT22;1107;48.654;9.250;2022-09-27T05:50:19;9.00;1.00
2202;DHT22;1107;48.654;9.250;2022-09-27T05:52:47;8.90;13.10
2202;DHT22;1107;48.654;9.250;2022-09-27T05:55:15;8.90;1.00
2202;DHT22;1107;48.654;9.250;2022-09-27T05:57:42;8.90;1.00
2202;DHT22;1107;48.654;9.250;2022-09-27T06:00:09;8.90;1.00
2202;DHT22;1107;48.654;9.250;2022-09-27T06:02:36;8.90;21.90
2202;DHT22;1107;48.654;9.250;2022-09-27T06:05:04;8.90;53.10
2202;DHT22;1107;48.654;9.250;2022-09-27T06:07:31;8.90;56.70
2202;DHT22;1107;48.654;9.250;2022-09-27T06:10:00;8.90;55.20
2202;DHT22;1107;48.654;9.250;2022-09-27T06:12:27;8.90;16.30
2202;DHT22;1107;48.654;9.250;2022-09-27T06:14:54;8.90;1.00
2202;DHT22;1107;48.654;9.250;2022-09-27T06:17:21;8.90;1.00
2202;DHT22;1107;48.654;9.250;2022-09-27T06:19:48;9.00;1.00
2202;DHT22;1107;48.654;9.250;2022-09-27T06:22:15;9.00;1.00
2202;DHT22;1107;48.654;9.250;2022-09-27T06:24:42;9.00;1.00
2202;DHT22;1107;48.654;9.250;2022-09-27T06:27:10;9.00;1.00
2202;DHT22;1107;48.654;9.250;2022-09-27T06:29:38;9.10;1.00
2202;DHT22;1107;48.654;9.250;2022-09-27T06:32:05;9.20;1.00
2202;DHT22;1107;48.654;9.250;2022-09-27T06:34:32;9.30;1.00
2202;DHT22;1107;48.654;9.250;2022-09-27T06:36:59;9.30;1.00
2202;DHT22;1107;48.654;9.250;2022-09-27T06:39:26;9.30;1.00
2202;DHT22;1107;48.654;9.250;2022-09-27T06:41:54;9.30;1.00
2202;DHT22;1107;48.654;9.250;2022-09-27T06:44:24;9.30;1.00
2202;DHT22;1107;48.654;9.250;2022-09-27T06:46:51;9.30;1.00
2202;DHT22;1107;48.654;9.250;2022-09-27T06:49:19;9.40;1.00
2202;DHT22;1107;48.654;9.250;2022-09-27T06:51:47;9.40;1.00
2202;DHT22;1107;48.654;9.250;2022-09-27T06:54:14;9.40;1.00
2202;DHT22;1107;48.654;9.250;2022-09-27T06:56:41;9.40;1.00
2202;DHT22;1107;48.654;9.250;2022-09-27T06:59:08;9.50;1.00
2202;DHT22;1107;48.654;9.250;2022-09-27T07:01:54;9.60;1.00
2202;DHT22;1107;48.654;9.250;2022-09-27T07:04:21;9.70;1.00
2202;DHT22;1107;48.654;9.250;2022-09-27T07:06:49;9.60;1.00
2202;DHT22;1107;48.654;9.250;2022-09-27T07:09:18;9.70;1.00
2202;DHT22;1107;48.654;9.250;2022-09-27T07:11:45;9.90;1.00
2202;DHT22;1107;48.654;9.250;2022-09-27T07:14:12;9.90;1.00
2202;DHT22;1107;48.654;9.250;2022-09-27T07:16:39;10.10;94.10
2202;DHT22;1107;48.654;9.250;2022-09-27T07:19:07;10.30;99.90
2202;DHT22;1107;48.654;9.250;2022-09-27T07:21:36;10.40;1.00
2202;DHT22;1107;48.654;9.250;2022-09-27T07:24:03;10.40;99.90
2202;DHT22;1107;48.654;9.250;2022-09-27T07:26:30;10.20;1.00
2202;DHT22;1107;48.654;9.250;2022-09-27T07:28:57;10.20;1.00
2202;DHT22;1107;48.654;9.250;2022-09-27T07:31:25;10.20;99.90
2202;DHT22;1107;48.654;9.250;2022-09-27T07:33:53;10.20;99.90
2202;DHT22;1107;48.654;9.250;2022-09-27T07:36:21;10.10;1.00
2202;DHT22;1107;48.654;9.250;2022-09-27T07:38:48;10.20;99.90
2202;DHT22;1107;48.654;9.250;2022-09-27T07:41:15;10.20;1.00
2202;DHT22;1107;48.654;9.250;2022-09-27T07:43:43;10.20;1.00
2202;DHT22;1107;48.654;9.250;2022-09-27T07:46:10;10.20;99.90
2202;DHT22;1107;48.654;9.250;2022-09-27T07:48:38;10.20;1.00
2202;DHT22;1107;48.654;9.250;2022-09-27T07:51:06;10.10;1.00
2202;DHT22;1107;48.654;9.250;2022-09-27T07:53:36;10.10;1.00
2202;DHT22;1107;48.654;9.250;2022-09-27T07:56:05;10.30;1.00
2202;DHT22;1107;48.654;9.250;2022-09-27T07:58:32;10.60;1.00
2202;DHT22;1107;48.654;9.250;2022-09-27T08:00:59;10.90;1.00
2202;DHT22;1107;48.654;9.250;2022-09-27T08:03:27;11.10;99.90
2202;DHT22;1107;48.654;9.250;2022-09-27T08:05:54;11.30;1.00
2202;DHT22;1107;48.654;9.250;2022-09-27T08:08:21;11.50;99.90
2202;DHT22;1107;48.654;9.250;2022-09-27T08:10:50;11.60;99.90
2202;DHT22;1107;48.654;9.250;2022-09-27T08:13:17;11.70;99.90
2202;DHT22;1107;48.654;9.250;2022-09-27T08:15:44;11.60;1.00
2202;DHT22;1107;48.654;9.250;2022-09-27T08:18:13;11.70;99.90
2202;DHT22;1107;48.654;9.250;2022-09-27T08:20:41;11.80;18.90
2202;DHT22;1107;48.654;9.250;2022-09-27T08:23:08;11.70;1.00
2202;DHT22;1107;48.654;9.250;2022-09-27T08:25:35;11.90;2.70
2202;DHT22;1107;48.654;9.250;2022-09-27T08:28:04;12.90;1.00
2202;DHT22;1107;48.654;9.250;2022-09-27T08:30:31;13.80;1.00
2202;DHT22;1107;48.654;9.250;2022-09-27T08:32:59;14.10;1.00
2202;DHT22;1107;48.654;9.250;2022-09-27T08:35:28;13.60;1.00
2202;DHT22;1107;48.654;9.250;2022-09-27T08:38:00;13.10;1.00
2202;DHT22;1107;48.654;9.250;2022-09-27T08:40:34;13.00;1.00
2202;DHT22;1107;48.654;9.250;2022-09-27T08:43:12;13.40;1.00
2202;DHT22;1107;48.654;9.250;2022-09-27T08:45:53;13.20;1.00
2202;DHT22;1107;48.654;9.250;2022-09-27T08:48:23;13.30;1.00
2202;DHT22;1107;48.654;9.250;2022-09-27T08:50:53;12.80;1.00
2202;DHT22;1107;48.654;9.250;2022-09-27T08:53:24;12.70;99.90
2202;DHT22;1107;48.654;9.250;2022-09-27T08:55:54;12.20;99.90
2202;DHT22;1107;48.654;9.250;2022-09-27T08:58:26;11.70;99.90
2202;DHT22;1107;48.654;9.250;2022-09-27T09:00:55;11.30;99.90
2202;DHT22;1107;48.654;9.250;2022-09-27T09:03:24;11.00;1.00
2202;DHT22;1107;48.654;9.250;2022-09-27T09:06:06;10.80;1.00
2202;DHT22;1107;48.654;9.250;2022-09-27T09:08:41;10.70;99.90
2202;DHT22;1107;48.654;9.250;2022-09-27T09:11:24;10.80;99.90
2202;DHT22;1107;48.654;9.250;2022-09-27T09:17:12;11.20;1.00
2202;DHT22;1107;48.654;9.250;2022-09-27T09:19:51;11.30;1.00
2202;DHT22;1107;48.654;9.250;2022-09-27T09:22:37;11.50;1.00
2202;DHT22;1107;48.654;9.250;2022-09-27T09:25:20;11.80;99.90
2202;DHT22;1107;48.654;9.250;2022-09-27T09:27:56;12.00;99.90
2202;DHT22;1107;48.654;9.250;2022-09-27T09:30:38;13.00;99.90
2202;DHT22;1107;48.654;9.250;2022-09-27T09:33:20;13.90;1.00
2202;DHT22;1107;48.654;9.250;2022-09-27T09:35:52;15.40;1.00
2202;DHT22;1107;48.654;9.250;2022-09-27T09:38:26;16.30;99.90
2202;DHT22;1107;48.654;9.250;2022-09-27T09:41:04;17.00;99.90
2202;DHT22;1107;48.654;9.250;2022-09-27T09:43:34;16.60;99.90
2202;DHT22;1107;48.654;9.250;2022-09-27T09:46:10;16.30;99.90
2202;DHT22;1107;48.654;9.250;2022-09-27T09:48:43;16.60;99.90
2202;DHT22;1107;48.654;9.250;2022-09-27T09:51:16;17.70;99.90
2202;DHT22;1107;48.654;9.250;2022-09-27T09:53:50;18.90;99.90
2202;DHT22;1107;48.654;9.250;2022-09-27T09:56:22;19.40;99.90
2202;DHT22;1107;48.654;9.250;2022-09-27T09:58:53;20.20;99.90
2202;DHT22;1107;48.654;9.250;2022-09-27T10:01:25;20.30;99.90
2202;DHT22;1107;48.654;9.250;2022-09-27T10:03:53;20.80;99.90
2202;DHT22;1107;48.654;9.250;2022-09-27T10:06:22;20.40;99.90
2202;DHT22;1107;48.654;9.250;2022-09-27T10:08:50;20.70;99.90
2202;DHT22;1107;48.654;9.250;2022-09-27T10:11:22;19.10;99.90
2202;DHT22;1107;48.654;9.250;2022-09-27T10:13:49;17.70;99.90
2202;DHT22;1107;48.654;9.250;2022-09-27T10:16:19;16.20;99.90
2202;DHT22;1107;48.654;9.250;2022-09-27T10:18:50;15.20;99.90
2202;DHT22;1107;48.654;9.250;2022-09-27T10:21:20;14.60;99.90
2202;DHT22;1107;48.654;9.250;2022-09-27T10:24:09;14.20;99.90
2202;DHT22;1107;48.654;9.250;2022-09-27T10:26:37;15.10;99.90
2202;DHT22;1107;48.654;9.250;2022-09-27T10:29:28;15.30;99.90
2202;DHT22;1107;48.654;9.250;2022-09-27T10:31:56;15.90;99.90
2202;DHT22;1107;48.654;9.250;2022-09-27T10:34:27;14.90;99.90
2202;DHT22;1107;48.654;9.250;2022-09-27T10:37:17;14.10;99.90
2202;DHT22;1107;48.654;9.250;2022-09-27T10:39:46;13.70;99.90
2202;DHT22;1107;48.654;9.250;2022-09-27T10:42:29;13.40;1.00
2202;DHT22;1107;48.654;9.250;2022-09-27T10:44:57;12.80;1.00
2202;DHT22;1107;48.654;9.250;2022-09-27T10:47:24;12.80;1.00
2202;DHT22;1107;48.654;9.250;2022-09-27T10:50:02;13.00;1.00
2202;DHT22;1107;48.654;9.250;2022-09-27T10:52:30;13.50;1.00
2202;DHT22;1107;48.654;9.250;2022-09-27T10:54:59;13.50;1.00
2202;DHT22;1107;48.654;9.250;2022-09-27T10:57:28;13.80;1.00
2202;DHT22;1107;48.654;9.250;2022-09-27T10:59:58;13.80;1.00
2202;DHT22;1107;48.654;9.250;2022-09-27T11:02:28;14.80;99.90
2202;DHT22;1107;48.654;9.250;2022-09-27T11:05:08;15.20;99.90
2202;DHT22;1107;48.654;9.250;2022-09-27T11:07:47;15.10;99.90
2202;DHT22;1107;48.654;9.250;2022-09-27T11:10:22;15.00;99.90
2202;DHT22;1107;48.654;9.250;2022-09-27T11:13:12;14.40;99.90
2202;DHT22;1107;48.654;9.250;2022-09-27T11:15:52;14.10;99.90
2202;DHT22;1107;48.654;9.250;2022-09-27T11:18:29;14.20;99.90
2202;DHT22;1107;48.654;9.250;2022-09-27T11:21:08;13.70;99.90
2202;DHT22;1107;48.654;9.250;2022-09-27T11:24:03;13.90;99.90
2202;DHT22;1107;48.654;9.250;2022-09-27T11:26:42;13.90;99.90
2202;DHT22;1107;48.654;9.250;2022-09-27T11:29:21;14.00;99.90
2202;DHT22;1107;48.654;9.250;2022-09-27T11:32:05;13.90;99.90
2202;DHT22;1107;48.654;9.250;2022-09-27T11:35:00;13.70;99.90
2202;DHT22;1107;48.654;9.250;2022-09-27T11:37:36;13.50;99.90
2202;DHT22;1107;48.654;9.250;2022-09-27T11:40:15;13.20;99.90
2202;DHT22;1107;48.654;9.250;2022-09-27T11:45:58;12.70;99.90
2202;DHT22;1107;48.654;9.250;2022-09-27T11:48:44;12.70;1.00
2202;DHT22;1107;48.654;9.250;2022-09-27T11:51:25;13.20;1.00
2202;DHT22;1107;48.654;9.250;2022-09-27T11:54:13;14.40;99.90
2202;DHT22;1107;48.654;9.250;2022-09-27T11:56:49;15.40;99.90
2202;DHT22;1107;48.654;9.250;2022-09-27T12:00:00;15.10;99.90
2202;DHT22;1107;48.654;9.250;2022-09-27T12:02:45;14.40;99.90
2202;DHT22;1107;48.654;9.250;2022-09-27T12:05:33;14.10;99.90
2202;DHT22;1107;48.654;9.250;2022-09-27T12:08:14;14.20;99.90
2202;DHT22;1107;48.654;9.250;2022-09-27T12:10:49;13.80;99.90
2202;DHT22;1107;48.654;9.250;2022-09-27T12:13:28;13.30;1.00
2202;DHT22;1107;48.654;9.250;2022-09-27T12:15:58;12.70;1.00
2202;DHT22;1107;48.654;9.250;2022-09-27T12:18:28;12.20;99.90
2202;DHT22;1107;48.654;9.250;2022-09-27T12:20:58;12.00;1.00
2202;DHT22;1107;48.654;9.250;2022-09-27T12:23:32;11.80;99.90
2202;DHT22;1107;48.654;9.250;2022-09-27T12:26:08;11.70;1.00
2202;DHT22;1107;48.654;9.250;2022-09-27T12:28:40;11.50;1.00
2202;DHT22;1107;48.654;9.250;2022-09-27T12:31:18;11.30;1.00
2202;DHT22;1107;48.654;9.250;2022-09-27T12:33:53;11.30;1.00
2202;DHT22;1107;48.654;9.250;2022-09-27T12:36:31;11.40;99.90
2202;DHT22;1107;48.654;9.250;2022-09-27T12:39:04;11.30;1.00
2202;DHT22;1107;48.654;9.250;2022-09-27T12:41:38;11.40;1.00
2202;DHT22;1107;48.654;9.250;2022-09-27T12:44:09;11.50;99.90
2202;DHT22;1107;48.654;9.250;2022-09-27T12:46:45;11.70;1.00
2202;DHT22;1107;48.654;9.250;2022-09-27T12:49:19;11.40;1.00
2202;DHT22;1107;48.654;9.250;2022-09-27T12:51:52;11.30;99.90
2202;DHT22;1107;48.654;9.250;2022-09-27T12:54:42;11.10;99.90
2202;DHT22;1107;48.654;9.250;2022-09-27T12:57:19;11.20;1.00
2202;DHT22;1107;48.654;9.250;2022-09-27T13:00:04;11.00;1.00
2202;DHT22;1107;48.654;9.250;2022-09-27T13:02:56;11.20;1.00
2202;DHT22;1107;48.654;9.250;2022-09-27T13:09:05;14.00;1.00
2202;DHT22;1107;48.654;9.250;2022-09-27T13:11:45;13.70;99.90
2202;DHT22;1107;48.654;9.250;2022-09-27T13:14:18;13.50;1.00
2202;DHT22;1107;48.654;9.250;2022-09-27T13:16:46;13.00;1.00
2202;DHT22;1107;48.654;9.250;2022-09-27T13:19:41;13.40;1.00
2202;DHT22;1107;48.654;9.250;2022-09-27T13:22:10;14.00;99.90
2202;DHT22;1107;48.654;9.250;2022-09-27T13:24:44;14.90;1.00
2202;DHT22;1107;48.654;9.250;2022-09-27T13:27:36;16.30;1.00
2202;DHT22;1107;48.654;9.250;2022-09-27T13:33:45;14.80;1.00
2202;DHT22;1107;48.654;9.250;2022-09-27T13:36:28;14.20;1.00
2202;DHT22;1107;48.654;9.250;2022-09-27T13:39:16;13.00;1.00
2202;DHT22;1107;48.654;9.250;2022-09-27T13:42:05;12.80;99.90
2202;DHT22;1107;48.654;9.250;2022-09-27T13:44:42;13.30;99.90
2202;DHT22;1107;48.654;9.250;2022-09-27T13:47:23;15.40;1.00
2202;DHT22;1107;48.654;9.250;2022-09-27T13:49:58;16.60;99.90
2202;DHT22;1107;48.654;9.250;2022-09-27T13:52:31;16.50;99.90
2202;DHT22;1107;48.654;9.250;2022-09-27T13:55:00;16.10;99.90
2202;DHT22;1107;48.654;9.250;2022-09-27T13:57:48;17.20;99.90
2202;DHT22;1107;48.654;9.250;2022-09-27T14:00:19;16.10;99.90
2202;DHT22;1107;48.654;9.250;2022-09-27T14:02:59;15.40;99.90
2202;DHT22;1107;48.654;9.250;2022-09-27T14:05:47;15.80;99.90
2202;DHT22;1107;48.654;9.250;2022-09-27T14:08:21;15.90;99.90
2202;DHT22;1107;48.654;9.250;2022-09-27T14:10:50;16.20;99.90
2202;DHT22;1107;48.654;9.250;2022-09-27T14:13:19;14.40;99.90
2202;DHT22;1107;48.654;9.250;2022-09-27T14:15:46;13.90;99.90
2202;DHT22;1107;48.654;9.250;2022-09-27T14:18:14;13.60;99.90
2202;DHT22;1107;48.654;9.250;2022-09-27T14:20:44;12.90;1.00
2202;DHT22;1107;48.654;9.250;2022-09-27T14:23:15;12.50;1.00
2202;DHT22;1107;48.654;9.250;2022-09-27T14:25:44;12.60;1.00
2202;DHT22;1107;48.654;9.250;2022-09-27T14:28:20;12.40;1.00
2202;DHT22;1107;48.654;9.250;2022-09-27T14:30:47;12.90;1.00
2202;DHT22;1107;48.654;9.250;2022-09-27T14:33:29;14.30;1.00
2202;DHT22;1107;48.654;9.250;2022-09-27T14:35:59;15.40;99.90
2202;DHT22;1107;48.654;9.250;2022-09-27T14:38:44;15.70;99.90
2202;DHT22;1107;48.654;9.250;2022-09-27T14:41:13;15.40;99.90
2202;DHT22;1107;48.654;9.250;2022-09-27T14:43:43;14.60;99.90
2202;DHT22;1107;48.654;9.250;2022-09-27T14:46:24;13.40;99.90
2202;DHT22;1107;48.654;9.250;2022-09-27T14:48:52;13.50;99.90
2202;DHT22;1107;48.654;9.250;2022-09-27T14:51:26;13.80;99.90
2202;DHT22;1107;48.654;9.250;2022-09-27T14:53:55;13.40;99.90
2202;DHT22;1107;48.654;9.250;2022-09-27T14:56:25;13.80;99.90
2202;DHT22;1107;48.654;9.250;2022-09-27T14:58:55;14.00;99.90
2202;DHT22;1107;48.654;9.250;2022-09-27T15:01:27;14.80;99.90
2202;DHT22;1107;48.654;9.250;2022-09-27T15:03:55;15.40;99.90
2202;DHT22;1107;48.654;9.250;2022-09-27T15:06:24;15.20;99.90
2202;DHT22;1107;48.654;9.250;2022-09-27T15:08:51;14.30;99.90
2202;DHT22;1107;48.654;9.250;2022-09-27T15:11:19;14.90;99.90
2202;DHT22;1107;48.654;9.250;2022-09-27T15:13:50;14.20;99.90
2202;DHT22;1107;48.654;9.250;2022-09-27T15:16:20;13.90;99.90
2202;DHT22;1107;48.654;9.250;2022-09-27T15:18:48;13.90;99.90
2202;DHT22;1107;48.654;9.250;2022-09-27T15:21:29;14.10;99.90
2202;DHT22;1107;48.654;9.250;2022-09-27T15:23:56;14.00;99.90
2202;DHT22;1107;48.654;9.250;2022-09-27T15:26:26;14.00;99.90
2202;DHT22;1107;48.654;9.250;2022-09-27T15:29:00;13.80;99.90
2202;DHT22;1107;48.654;9.250;2022-09-27T15:31:28;13.10;99.90
2202;DHT22;1107;48.654;9.250;2022-09-27T15:33:56;12.70;99.90
2202;DHT22;1107;48.654;9.250;2022-09-27T15:39:30;12.20;1.00
2202;DHT22;1107;48.654;9.250;2022-09-27T15:42:07;12.00;1.00
2202;DHT22;1107;48.654;9.250;2022-09-27T15:44:43;11.70;1.00
2202;DHT22;1107;48.654;9.250;2022-09-27T15:47:41;11.60;1.00
2202;DHT22;1107;48.654;9.250;2022-09-27T15:50:34;11.50;1.00
2202;DHT22;1107;48.654;9.250;2022-09-27T15:53:02;11.30;1.00
2202;DHT22;1107;48.654;9.250;2022-09-27T15:55:34;11.20;1.00
2202;DHT22;1107;48.654;9.250;2022-09-27T15:58:04;11.20;1.00
2202;DHT22;1107;48.654;9.250;2022-09-27T16:00:33;11.10;1.00
2202;DHT22;1107;48.654;9.250;2022-09-27T16:03:01;11.20;1.00
2202;DHT22;1107;48.654;9.250;2022-09-27T16:05:28;11.20;1.00
2202;DHT22;1107;48.654;9.250;2022-09-27T16:07:57;11.20;1.00
2202;DHT22;1107;48.654;9.250;2022-09-27T16:10:28;11.20;1.00
2202;DHT22;1107;48.654;9.250;2022-09-27T16:12:57;11.20;1.00
2202;DHT22;1107;48.654;9.250;2022-09-27T16:15:24;11.20;1.00
2202;DHT22;1107;48.654;9.250;2022-09-27T16:17:51;11.20;1.00
2202;DHT22;1107;48.654;9.250;2022-09-27T16:20:20;11.10;1.00
2202;DHT22;1107;48.654;9.250;2022-09-27T16:22:49;11.10;1.00
2202;DHT22;1107;48.654;9.250;2022-09-27T16:25:17;11.00;1.00
2202;DHT22;1107;48.654;9.250;2022-09-27T16:27:44;10.90;1.00
2202;DHT22;1107;48.654;9.250;2022-09-27T16:30:14;10.80;1.00
2202;DHT22;1107;48.654;9.250;2022-09-27T16:32:42;10.80;1.00
2202;DHT22;1107;48.654;9.250;2022-09-27T16:35:10;10.80;1.00
2202;DHT22;1107;48.654;9.250;2022-09-27T16:37:37;10.70;1.00
2202;DHT22;1107;48.654;9.250;2022-09-27T16:40:05;10.60;1.00
2202;DHT22;1107;48.654;9.250;2022-09-27T16:42:33;10.60;1.00
2202;DHT22;1107;48.654;9.250;2022-09-27T16:45:00;10.60;1.00
2202;DHT22;1107;48.654;9.250;2022-09-27T16:47:29;10.60;1.00
2202;DHT22;1107;48.654;9.250;2022-09-27T16:49:56;10.50;1.00
2202;DHT22;1107;48.654;9.250;2022-09-27T16:52:41;10.50;1.00
2202;DHT22;1107;48.654;9.250;2022-09-27T16:55:12;10.40;1.00
2202;DHT22;1107;48.654;9.250;2022-09-27T16:57:39;10.30;1.00
2202;DHT22;1107;48.654;9.250;2022-09-27T17:00:07;10.30;5.00
2202;DHT22;1107;48.654;9.250;2022-09-27T17:02:36;10.20;51.00
2202;DHT22;1107;48.654;9.250;2022-09-27T17:05:04;10.20;98.60